• Join FlightAware (Why Join?)
  • Login
  • US Flag 
07:26AM EST


 

Airport Tracker/Info


-or-


 

Live Flight TrackerFlight Track Log ✈ FRG2070 ✈ 20-Dec-2013 ✈ KRST - KSTP

Flight Track Log - Related Links

Times and Time Zones

All times are in EST time to prevent confusion due to time zone crossing. See the FRG2070 flight status page for this flight to view local times or setup timezone preferences in your user account.

Time Position Orientation Groundspeed Altitude Reporting Facility
EST Latitude Longitude Course Direction KTS MPH feet Rate Location/Type
05:34AM 43.9103 -92.4994 313° West 3 3 1,300  Level Minneapolis Center
05:35AM 43.9103 -92.4997 270° West 3 3 1,300 300 Level Minneapolis Center
05:36AM 43.9256 -92.5211 315° West 73 84 2,000 720 Climbing Minneapolis Center
05:37AM 43.9508 -92.5347 339° North 89 102 2,800 720 Climbing Minneapolis Center
05:38AM 43.9792 -92.5494 339° North 107 123 3,500 540 Climbing Minneapolis Center
05:39AM 44.0117 -92.5636 343° North 120 138 4,000 180 Climbing Minneapolis Center
05:40AM 44.0233 -92.6743 313° West  Level FlightAware Approximate
05:40AM 44.0472 -92.5794 342° North 133 153 3,900  Level Minneapolis Center
05:41AM 44.0864 -92.6008 339° North 141 162 4,000  Climbing Minneapolis Center
05:42AM 44.1208 -92.6253 333° Northwest 142 163 4,000  Level Minneapolis Center
05:43AM 44.1556 -92.6500 333° Northwest 141 162 4,000 -60 Level Minneapolis Center
05:44AM 44.1900 -92.6719 335° Northwest 140 161 3,900 -60 Descending Minneapolis Center
05:45AM 44.2267 -92.6867 344° North 139 160 3,900  Level Minneapolis Center
05:46AM 44.2661 -92.7075 339° North 139 160 3,900  Level Minneapolis Center
05:47AM 44.3011 -92.7275 338° Northwest 136 157 3,900  Level Minneapolis Center
05:48AM 44.3375 -92.7447 341° North 140 161 4,000  Climbing Minneapolis Center
05:49AM 44.3711 -92.7614 340° North 140 161 4,000  Level Minneapolis Center
05:50AM 44.4083 -92.7792 341° North 142 163 4,100  Climbing Minneapolis Center
05:51AM 44.4453 -92.8006 338° Northwest 143 165 4,100 -180 Level Minneapolis Center
05:52AM 44.4831 -92.8217 338° Northwest 146 168 3,800 -480 Descending Minneapolis Center
05:53AM 44.5219 -92.8436 338° Northwest 150 173 3,200 -420 Descending Minneapolis Center
05:54AM 44.5592 -92.8639 339° North 144 166 3,000 -60 Descending Minneapolis Center
05:55AM 44.5908 -92.8811 339° North 127 146 3,100  Climbing Minneapolis Center
05:56AM 44.6328 -92.9031 340° North 134 154 3,100 -60 Level Minneapolis Center
05:57AM 44.6667 -92.9228 338° Northwest 133 153 3,000 -180 Descending Minneapolis Center
05:58AM 44.7022 -92.9419 339° North 136 157 2,800 -240 Descending Minneapolis Center
06:00AM 44.7386 -92.9536 347° North 135 155 2,600 -120 Descending Minneapolis Center
06:01AM 44.7722 -92.9689 342° North 128 147 2,600  Level Minneapolis Center
06:02AM 44.8061 -92.9772 350° North 125 144 2,600  Level Minneapolis Center
06:03AM 44.8389 -92.9886 346° North 123 142 2,600 -240 Level Minneapolis Center
06:04AM 44.8717 -93.0019 344° North 123 142 2,200 -540 Descending Minneapolis Center
06:05AM 44.8989 -93.0272 327° Northwest 118 136 1,600 -600 Descending Minneapolis Center
06:06AM 44.9247 -93.0508 327° Northwest 107 123 1,100 -540 Descending Minneapolis Center
06:08AM 44.9333 -93.0500 347° North  Level FlightAware Approximate
06:15AM 44.9346 -93.0603 347° North  Level Estimated